createdAt,value
2023-03-10T00:00:35.882Z,246.94
2023-03-10T00:01:35.876Z,246.74
2023-03-10T00:02:35.856Z,247.26
2023-03-10T00:03:35.848Z,247.01
2023-03-10T00:04:35.939Z,247.61
2023-03-10T00:05:35.834Z,247.83
2023-03-10T00:06:35.815Z,247.26
2023-03-10T00:07:35.789Z,247.88
2023-03-10T00:08:35.787Z,247.65
2023-03-10T00:09:35.788Z,247.08
2023-03-10T00:10:35.768Z,246.49
2023-03-10T00:11:35.772Z,246.64
2023-03-10T00:12:35.745Z,246.86
2023-03-10T00:13:35.727Z,246.85
2023-03-10T00:14:35.731Z,247.00
2023-03-10T00:15:35.798Z,247.06
2023-03-10T00:16:35.704Z,247.01
2023-03-10T00:17:35.700Z,246.74
2023-03-10T00:18:35.716Z,246.98
2023-03-10T00:19:35.670Z,246.56
2023-03-10T00:20:35.670Z,246.96
2023-03-10T00:21:35.661Z,245.79
2023-03-10T00:22:35.656Z,246.83
2023-03-10T00:23:37.434Z,247.13
2023-03-10T00:24:35.625Z,245.84
2023-03-10T00:25:35.619Z,247.37
2023-03-10T00:26:35.610Z,245.96
2023-03-10T00:27:35.594Z,246.44
2023-03-10T00:28:35.590Z,247.76
2023-03-10T00:29:35.569Z,246.39
2023-03-10T00:30:35.558Z,247.07
2023-03-10T00:31:35.565Z,246.25
2023-03-10T00:32:35.607Z,246.44
2023-03-10T00:33:35.535Z,247.01
2023-03-10T00:34:35.524Z,245.92
2023-03-10T00:35:35.553Z,246.26
2023-03-10T00:36:35.496Z,246.65
2023-03-10T00:37:35.481Z,245.95
2023-03-10T00:38:35.483Z,246.02
2023-03-10T00:39:35.468Z,246.80
2023-03-10T00:40:35.468Z,247.55
2023-03-10T00:41:35.444Z,245.74
2023-03-10T00:42:35.440Z,245.23
2023-03-10T00:43:35.432Z,247.17
2023-03-10T00:44:35.465Z,246.43
2023-03-10T00:45:35.424Z,246.41
2023-03-10T00:46:35.462Z,245.99
2023-03-10T00:47:35.418Z,246.57
2023-03-10T00:48:35.409Z,246.30
2023-03-10T00:49:35.408Z,246.00
2023-03-10T00:50:35.391Z,246.18
2023-03-10T00:51:35.377Z,246.04
2023-03-10T00:52:35.370Z,245.85
2023-03-10T00:53:35.355Z,247.12
2023-03-10T00:54:35.364Z,246.18
2023-03-10T00:55:35.357Z,245.34
2023-03-10T00:56:35.337Z,245.46
2023-03-10T00:57:35.332Z,245.03
2023-03-10T00:58:35.315Z,245.85
2023-03-10T00:59:49.419Z,245.07
2023-03-10T01:00:36.299Z,245.16
2023-03-10T01:01:35.377Z,245.12
2023-03-10T01:02:35.284Z,245.64
2023-03-10T01:03:35.262Z,245.42
2023-03-10T01:04:35.300Z,245.41
2023-03-10T01:05:35.251Z,246.15
2023-03-10T01:06:35.234Z,244.89
2023-03-10T01:07:35.221Z,244.91
2023-03-10T01:08:35.209Z,244.47
2023-03-10T01:09:35.197Z,245.50
2023-03-10T01:10:35.200Z,245.55
2023-03-10T01:11:35.213Z,245.68
2023-03-10T01:12:35.162Z,245.76
2023-03-10T01:13:35.158Z,245.76
2023-03-10T01:14:35.152Z,245.34
2023-03-10T01:15:35.157Z,245.44
2023-03-10T01:16:35.216Z,245.00
2023-03-10T01:17:35.121Z,244.61
2023-03-10T01:18:35.120Z,245.33
2023-03-10T01:19:35.107Z,245.28
2023-03-10T01:20:35.124Z,245.03
2023-03-10T01:21:35.096Z,244.92
2023-03-10T01:22:35.108Z,243.94
2023-03-10T01:23:35.076Z,244.28
2023-03-10T01:24:35.092Z,243.88
2023-03-10T01:25:35.096Z,244.76
2023-03-10T01:26:35.043Z,243.42
2023-03-10T01:27:35.029Z,243.99
2023-03-10T01:28:35.072Z,243.85
2023-03-10T01:29:35.011Z,244.39
2023-03-10T01:30:35.022Z,244.45
2023-03-10T01:31:35.094Z,244.45
2023-03-10T01:32:35.055Z,244.40
2023-03-10T01:33:34.975Z,244.35
2023-03-10T01:34:34.959Z,243.93
2023-03-10T01:35:35.006Z,244.09
2023-03-10T01:36:34.962Z,243.72
2023-03-10T01:37:34.948Z,243.65
2023-03-10T01:38:34.925Z,244.13
2023-03-10T01:39:34.920Z,243.74
2023-03-10T01:40:34.911Z,244.22
2023-03-10T01:41:34.901Z,243.35
2023-03-10T01:42:34.891Z,242.64
2023-03-10T01:43:34.885Z,243.55
2023-03-10T01:44:34.880Z,243.23
2023-03-10T01:45:34.869Z,242.94
2023-03-10T01:46:34.940Z,243.15
2023-03-10T01:47:34.862Z,241.58
2023-03-10T01:48:34.827Z,241.86
2023-03-10T01:49:34.867Z,241.17
2023-03-10T01:50:34.826Z,241.30
2023-03-10T01:51:34.821Z,242.16
2023-03-10T01:52:34.808Z,240.84
2023-03-10T01:53:34.799Z,241.68
2023-03-10T01:54:34.783Z,241.31
2023-03-10T02:48:34.286Z,234.03
2023-03-10T02:49:34.248Z,234.27
2023-03-10T02:50:34.230Z,234.71
2023-03-10T02:51:34.234Z,234.86
2023-03-10T02:52:34.194Z,234.47
2023-03-10T02:53:34.181Z,234.55
2023-03-10T02:54:34.165Z,234.62
2023-03-10T02:55:34.150Z,234.66
2023-03-10T02:56:34.182Z,234.84
2023-03-10T02:57:34.143Z,234.85
2023-03-10T02:58:34.117Z,235.04
2023-03-10T02:59:34.112Z,234.82
2023-03-10T03:00:34.103Z,234.37
2023-03-10T03:01:34.157Z,234.06
2023-03-10T03:02:34.080Z,233.59
2023-03-10T03:03:34.095Z,233.30
2023-03-10T03:04:34.069Z,233.63
2023-03-10T03:05:34.055Z,233.14
2023-03-10T03:06:34.029Z,231.57
2023-03-10T03:07:34.024Z,232.81
2023-03-10T03:08:33.995Z,231.84
2023-03-10T03:09:33.991Z,231.44
2023-03-10T03:10:33.970Z,231.87
2023-03-10T03:11:33.964Z,231.54
2023-03-10T03:12:33.948Z,231.68
2023-03-10T03:13:33.941Z,232.05
2023-03-10T03:14:33.911Z,231.15
2023-03-10T03:15:33.896Z,231.51
2023-03-10T03:16:33.987Z,231.60
2023-03-10T03:17:33.885Z,232.20
2023-03-10T03:18:33.871Z,231.19
2023-03-10T03:19:33.855Z,231.29
2023-03-10T03:20:33.847Z,231.49
2023-03-10T03:21:33.833Z,231.42
2023-03-10T03:22:33.818Z,231.69
2023-03-10T03:23:33.806Z,231.01
2023-03-10T03:24:33.790Z,231.05
2023-03-10T03:25:33.778Z,231.00
2023-03-10T03:26:33.759Z,230.08
2023-03-10T03:27:33.758Z,230.66
2023-03-10T03:28:33.748Z,229.80
2023-03-10T03:29:33.732Z,230.70
2023-03-10T03:30:33.718Z,229.58
2023-03-10T03:31:33.705Z,229.76
2023-03-10T03:32:33.704Z,230.00
2023-03-10T03:33:33.675Z,229.38
2023-03-10T03:34:33.660Z,228.02
2023-03-10T03:35:33.704Z,228.45
2023-03-10T03:36:33.701Z,228.57
2023-03-10T03:37:33.616Z,228.23
2023-03-10T03:38:33.614Z,227.50
2023-03-10T03:39:33.687Z,227.15
2023-03-10T03:40:33.572Z,226.61
2023-03-10T03:41:33.566Z,227.36
2023-03-10T03:42:33.549Z,226.87
2023-03-10T03:43:33.551Z,227.14
2023-03-10T03:44:33.523Z,226.29
2023-03-10T03:45:33.525Z,226.51
2023-03-10T03:46:33.595Z,225.76
2023-03-10T03:47:33.524Z,225.20
2023-03-10T03:48:33.499Z,225.33
2023-03-10T03:49:33.495Z,224.66
2023-03-10T03:50:33.492Z,225.28
2023-03-10T03:51:33.460Z,224.29
2023-03-10T03:52:33.450Z,224.67
2023-03-10T03:53:33.441Z,223.99
2023-03-10T03:54:33.427Z,223.65
2023-03-10T03:55:33.416Z,222.88
2023-03-10T03:56:33.406Z,222.99
2023-03-10T03:57:33.412Z,223.19
2023-03-10T03:58:33.391Z,223.28
2023-03-10T03:59:33.378Z,223.18
2023-03-10T04:00:33.372Z,223.00
2023-03-10T04:01:33.370Z,222.70
2023-03-10T04:02:33.436Z,222.26
2023-03-10T04:03:33.419Z,221.12
2023-03-10T04:04:33.346Z,221.42
2023-03-10T04:05:33.351Z,220.93
2023-03-10T04:06:33.324Z,220.26
2023-03-10T04:07:33.315Z,220.51
2023-03-10T04:08:33.326Z,220.92
2023-03-10T04:09:33.311Z,220.09
2023-03-10T04:10:33.288Z,219.12
2023-03-10T04:11:33.327Z,220.05
2023-03-10T04:12:33.264Z,219.86
2023-03-10T04:13:33.264Z,219.63
2023-03-10T04:14:33.244Z,217.75
2023-03-10T04:15:33.285Z,217.63
2023-03-10T04:16:33.225Z,218.76
2023-03-10T04:17:33.233Z,217.39
2023-03-10T04:18:33.203Z,217.45
2023-03-10T04:19:33.200Z,217.15
2023-03-10T04:20:33.179Z,218.08
2023-03-10T04:21:33.173Z,216.43
2023-03-10T04:22:33.151Z,217.21
2023-03-10T04:23:33.144Z,217.52
2023-03-10T04:24:33.133Z,217.60
2023-03-10T04:25:33.129Z,216.30
2023-03-10T04:26:33.107Z,216.16
2023-03-10T04:27:33.110Z,216.31
2023-03-10T04:28:33.083Z,215.36
2023-03-10T04:29:33.078Z,215.53
2023-03-10T04:30:33.067Z,214.85
2023-03-10T04:31:33.148Z,215.64
2023-03-10T04:32:33.120Z,213.75
2023-03-10T04:33:33.063Z,214.76
2023-03-10T04:34:33.050Z,213.90
2023-03-10T04:35:33.066Z,215.48
2023-03-10T04:36:33.013Z,214.82
2023-03-10T04:37:32.994Z,213.84
2023-03-10T04:38:32.990Z,214.94
2023-03-10T04:39:32.970Z,213.48
2023-03-10T04:40:32.964Z,214.83
2023-03-10T04:41:32.946Z,216.01
2023-03-10T04:42:32.936Z,215.82
2023-03-10T04:43:32.943Z,215.28
2023-03-10T04:44:32.912Z,215.34
2023-03-10T04:45:32.912Z,215.22
2023-03-10T04:46:33.018Z,213.84
2023-03-10T04:47:32.889Z,214.49
2023-03-10T04:48:32.868Z,214.04
2023-03-10T04:49:32.906Z,215.68
2023-03-10T04:50:32.847Z,215.74
2023-03-10T04:51:32.833Z,215.79
2023-03-10T04:52:32.818Z,216.08
2023-03-10T04:53:32.818Z,216.01
2023-03-10T04:54:32.814Z,216.86
2023-03-10T04:55:32.796Z,215.68
2023-03-10T04:56:32.784Z,216.36
2023-03-10T04:57:32.761Z,215.43
2023-03-10T04:58:32.747Z,215.82
2023-03-10T04:59:32.746Z,214.76
2023-03-10T05:00:32.793Z,215.90
2023-03-10T05:01:32.752Z,216.54
2023-03-10T05:02:32.698Z,215.74
2023-03-10T05:03:32.688Z,215.88
2023-03-10T05:04:32.705Z,216.86
2023-03-10T05:05:32.653Z,216.04
2023-03-10T05:06:32.642Z,216.19
2023-03-10T05:07:32.612Z,215.30
2023-03-10T05:08:32.596Z,215.83
2023-03-10T05:09:32.585Z,216.16
2023-03-10T05:10:32.576Z,216.13
2023-03-10T05:11:32.568Z,216.16
2023-03-10T05:12:32.552Z,216.47
2023-03-10T05:13:32.539Z,216.67
2023-03-10T05:14:32.520Z,216.75
2023-03-10T05:15:32.513Z,215.39
2023-03-10T05:16:32.610Z,215.36
2023-03-10T05:17:32.505Z,215.89
2023-03-10T05:18:32.487Z,216.28
2023-03-10T05:19:32.476Z,215.54
2023-03-10T05:20:32.455Z,215.05
2023-03-10T05:21:32.451Z,215.10
2023-03-10T05:22:32.434Z,215.40
2023-03-10T05:23:32.426Z,214.07
2023-03-10T05:24:32.420Z,215.22
2023-03-10T05:25:32.405Z,215.59
2023-03-10T05:26:34.783Z,214.43
2023-03-10T05:27:32.544Z,215.88
2023-03-10T05:28:32.533Z,216.00
2023-03-10T05:29:32.549Z,215.26
2023-03-10T05:30:32.518Z,214.50
2023-03-10T05:31:32.523Z,215.76
2023-03-10T05:32:32.546Z,215.71
2023-03-10T05:33:32.481Z,215.34
2023-03-10T05:34:32.472Z,215.53
2023-03-10T05:35:32.589Z,215.94
2023-03-10T05:36:32.446Z,215.20
2023-03-10T05:37:32.448Z,215.76
2023-03-10T05:38:32.432Z,214.39
2023-03-10T05:39:32.414Z,214.82
2023-03-10T05:40:32.414Z,214.37
2023-03-10T05:41:32.402Z,215.13
2023-03-10T05:42:32.386Z,213.90
2023-03-10T05:43:32.378Z,215.62
2023-03-10T05:44:32.364Z,215.65
2023-03-10T05:45:32.355Z,215.79
2023-03-10T05:46:32.388Z,215.70
2023-03-10T05:47:32.335Z,215.90
2023-03-10T05:48:32.334Z,215.55
2023-03-10T05:49:32.314Z,215.93
2023-03-10T05:50:32.306Z,215.26
2023-03-10T05:51:32.297Z,216.35
2023-03-10T05:52:32.298Z,216.38
2023-03-10T05:53:32.307Z,215.55
2023-03-10T05:54:32.272Z,216.00
2023-03-10T05:55:32.257Z,216.58
2023-03-10T05:56:32.240Z,215.70
2023-03-10T05:57:32.242Z,216.69
2023-03-10T05:58:32.219Z,216.52
2023-03-10T05:59:32.207Z,215.71
2023-03-10T06:00:32.276Z,216.37
2023-03-10T06:01:32.207Z,217.22
2023-03-10T06:02:32.183Z,216.62
2023-03-10T06:03:32.318Z,216.63
2023-03-10T06:04:32.254Z,217.05
2023-03-10T06:05:32.163Z,216.99
2023-03-10T06:06:32.152Z,215.78
2023-03-10T06:07:32.130Z,216.95
2023-03-10T06:08:32.128Z,214.91
2023-03-10T06:09:32.119Z,214.96
2023-03-10T06:10:32.105Z,214.05
2023-03-10T06:11:32.095Z,212.85
2023-03-10T06:12:32.087Z,212.18
2023-03-10T06:13:32.065Z,211.63
2023-03-10T06:14:32.062Z,210.18
2023-03-10T06:15:32.060Z,209.62
2023-03-10T06:16:32.047Z,207.98
2023-03-10T06:17:32.037Z,209.04
2023-03-10T06:18:32.013Z,207.52
2023-03-10T06:19:32.003Z,207.77
2023-03-10T06:20:32.002Z,207.89
2023-03-10T06:21:31.987Z,205.11
2023-03-10T06:22:31.979Z,203.99
2023-03-10T06:23:31.985Z,204.20
2023-03-10T06:24:31.945Z,202.46
2023-03-10T06:25:31.936Z,203.31
2023-03-10T06:26:31.912Z,201.33
2023-03-10T06:27:31.906Z,201.27
2023-03-10T06:28:31.884Z,198.77
2023-03-10T06:29:31.881Z,196.71
2023-03-10T06:30:31.862Z,197.07
2023-03-10T06:31:31.880Z,195.56
2023-03-10T06:32:31.859Z,185.75
2023-03-10T06:33:31.824Z,123.91
2023-03-10T06:34:31.806Z,70.39
2023-03-10T06:35:31.803Z,29.52
2023-03-10T06:36:31.802Z,17.03
2023-03-10T06:37:31.802Z,7.19
2023-03-10T06:38:31.804Z,22.37
2023-03-10T06:39:31.833Z,43.95
2023-03-10T06:40:31.819Z,65.67
2023-03-10T06:41:31.895Z,80.12
2023-03-10T06:42:31.819Z,91.68
2023-03-10T06:43:31.813Z,93.52
2023-03-10T06:44:31.817Z,107.53
2023-03-10T06:45:31.861Z,115.23
2023-03-10T06:46:31.807Z,126.55
2023-03-10T06:47:31.798Z,135.77
2023-03-10T06:48:31.789Z,138.41
2023-03-10T06:49:31.791Z,142.35
2023-03-10T06:50:31.861Z,147.70
2023-03-10T06:51:31.768Z,138.92
2023-03-10T06:52:31.771Z,129.24
2023-03-10T06:53:31.751Z,109.46
2023-03-10T06:54:31.746Z,92.71
2023-03-10T06:55:31.740Z,90.31
2023-03-10T06:56:31.736Z,86.61
2023-03-10T06:57:31.713Z,78.48
2023-03-10T06:58:31.721Z,72.40
2023-03-10T06:59:31.719Z,58.09
2023-03-10T07:00:31.703Z,54.60
2023-03-10T07:01:31.819Z,66.79
2023-03-10T07:02:31.690Z,61.08
2023-03-10T07:03:31.679Z,55.53
2023-03-10T07:04:31.795Z,62.12
2023-03-10T07:05:31.664Z,55.30
2023-03-10T07:06:31.656Z,55.73
2023-03-10T07:07:31.655Z,51.67
2023-03-10T07:08:31.664Z,56.10
2023-03-10T07:09:31.676Z,63.17
2023-03-10T07:10:31.634Z,49.21
2023-03-10T07:11:31.635Z,48.41
2023-03-10T07:12:31.620Z,46.30
2023-03-10T07:13:31.602Z,85.55
2023-03-10T07:14:31.621Z,44.07
2023-03-10T07:15:31.582Z,75.63
2023-03-10T07:16:31.694Z,92.95
2023-03-10T07:17:31.563Z,116.84
2023-03-10T07:18:31.564Z,126.02
2023-03-10T07:19:31.556Z,139.52
2023-03-10T07:20:31.543Z,148.45
2023-03-10T07:21:31.534Z,155.25
2023-03-10T07:22:31.535Z,155.44
2023-03-10T07:23:31.512Z,165.00
2023-03-10T07:24:31.502Z,171.34
2023-03-10T07:25:31.511Z,171.63
2023-03-10T07:26:31.512Z,173.25
2023-03-10T07:27:31.479Z,171.94
2023-03-10T07:28:31.465Z,174.29
2023-03-10T07:29:31.443Z,179.30
2023-03-10T07:30:31.451Z,172.23
2023-03-10T07:31:31.413Z,174.75
2023-03-10T07:32:31.437Z,178.81
2023-03-10T07:33:31.368Z,185.27
2023-03-10T07:34:31.360Z,194.37
2023-03-10T07:35:31.353Z,193.20
2023-03-10T07:36:31.366Z,191.10
2023-03-10T07:37:31.331Z,187.13
2023-03-10T07:38:31.322Z,191.15
2023-03-10T07:39:31.302Z,193.55
2023-03-10T07:40:31.306Z,201.10
2023-03-10T07:41:31.305Z,227.59
2023-03-10T07:42:31.293Z,227.04
2023-03-10T07:43:31.268Z,181.17
2023-03-10T07:44:31.279Z,196.77
2023-03-10T07:45:31.333Z,143.58
2023-03-10T07:46:31.266Z,125.42
2023-03-10T07:47:31.237Z,120.07
2023-03-10T07:48:31.204Z,100.91
2023-03-10T07:49:31.184Z,84.77
2023-03-10T07:50:31.182Z,65.09
2023-03-10T07:51:31.166Z,68.59
2023-03-10T07:52:31.149Z,64.78
2023-03-10T07:53:31.151Z,53.68
2023-03-10T07:54:31.132Z,42.18
2023-03-10T07:55:31.119Z,40.41
2023-03-10T07:56:31.116Z,33.95
2023-03-10T07:57:31.116Z,39.29
2023-03-10T07:58:31.089Z,28.57
2023-03-10T07:59:31.085Z,29.04
2023-03-10T08:00:31.058Z,46.36
2023-03-10T08:01:31.090Z,30.62
2023-03-10T08:02:31.058Z,38.31
2023-03-10T08:03:31.094Z,21.10
2023-03-10T08:04:31.225Z,26.77
2023-03-10T08:05:31.075Z,35.09
2023-03-10T08:06:31.026Z,29.44
2023-03-10T08:07:31.015Z,46.47
2023-03-10T08:08:31.006Z,34.18
2023-03-10T08:09:31.006Z,31.44
2023-03-10T08:10:31.004Z,27.31
2023-03-10T08:11:31.004Z,28.24
2023-03-10T08:12:31.031Z,30.54
2023-03-10T08:13:30.996Z,33.19
2023-03-10T08:14:30.996Z,27.89
2023-03-10T08:15:30.977Z,29.78
2023-03-10T08:16:31.058Z,25.00
2023-03-10T08:17:31.083Z,25.27
2023-03-10T08:20:58.565Z,25.00
2023-03-10T08:55:13.405Z,25.00
2023-03-10T08:56:13.352Z,25.00
2023-03-10T09:07:16.062Z,25.00
2023-03-10T14:29:12.642Z,249.55
2023-03-10T14:30:12.639Z,249.09
2023-03-10T14:31:12.713Z,248.71
2023-03-10T14:32:12.638Z,249.07
2023-03-10T14:33:12.578Z,248.97
2023-03-10T14:34:12.550Z,249.62
2023-03-10T14:35:12.544Z,249.25
2023-03-10T14:36:12.610Z,249.37
2023-03-10T14:37:12.486Z,249.61
2023-03-10T14:38:12.504Z,249.68
2023-03-10T14:39:12.457Z,249.80
2023-03-10T14:40:12.433Z,249.96
2023-03-10T14:41:12.424Z,249.73
2023-03-10T21:05:07.133Z,232.50
2023-03-10T21:06:07.110Z,232.13
2023-03-10T21:07:07.117Z,231.89
2023-03-10T21:08:07.100Z,232.51
2023-03-10T21:09:07.099Z,231.91
2023-03-10T21:10:07.060Z,233.09
2023-03-10T21:11:07.060Z,231.95
2023-03-10T21:12:07.047Z,232.60
2023-03-10T21:13:07.029Z,232.71
2023-03-10T21:14:07.028Z,231.73
2023-03-10T21:15:06.994Z,232.40
2023-03-10T21:16:06.992Z,232.12
2023-03-10T21:17:07.019Z,232.03
2023-03-10T21:18:06.965Z,232.42
2023-03-10T21:19:06.953Z,232.74
2023-03-10T21:20:06.938Z,231.51
2023-03-10T21:21:06.945Z,232.70
2023-03-10T21:22:06.930Z,232.11
2023-03-10T21:23:06.911Z,232.48
2023-03-10T21:24:06.919Z,232.46
2023-03-10T21:25:06.883Z,232.32
2023-03-10T21:26:06.872Z,232.01
2023-03-10T21:27:06.862Z,232.24
2023-03-10T21:28:06.857Z,230.79
2023-03-10T21:29:06.844Z,230.95
2023-03-10T21:30:06.824Z,232.14
2023-03-10T21:31:06.833Z,231.33
2023-03-10T21:32:06.792Z,232.12
2023-03-10T21:33:06.796Z,231.99
2023-03-10T21:34:06.773Z,230.94
2023-03-10T21:35:06.771Z,231.48
2023-03-10T21:36:06.756Z,231.03
2023-03-10T21:37:06.740Z,231.29
2023-03-10T21:38:06.719Z,231.58
2023-03-10T21:39:06.704Z,230.70
2023-03-10T21:40:06.688Z,230.89
2023-03-10T21:41:06.672Z,231.31
2023-03-10T21:42:06.648Z,231.77
2023-03-10T21:43:06.664Z,230.68
2023-03-10T21:44:06.613Z,231.28
2023-03-10T21:45:06.614Z,231.97
2023-03-10T21:46:06.732Z,231.16
2023-03-10T21:47:06.571Z,230.89
2023-03-10T21:48:06.567Z,231.73
2023-03-10T21:49:06.533Z,230.62
2023-03-10T21:50:06.520Z,230.40
2023-03-10T21:51:06.500Z,230.73
2023-03-10T21:52:06.487Z,231.23
2023-03-10T21:53:06.497Z,231.02
2023-03-10T21:54:06.486Z,231.38
2023-03-10T21:55:06.449Z,229.79
2023-03-10T21:56:06.427Z,230.54
2023-03-10T21:57:06.411Z,230.13
2023-03-10T21:58:06.373Z,230.30
2023-03-10T21:59:06.370Z,230.49
2023-03-10T22:00:06.350Z,229.90
2023-03-10T22:01:06.358Z,229.80
2023-03-10T22:02:06.306Z,230.37
2023-03-10T22:03:06.296Z,230.52
2023-03-10T22:04:06.282Z,230.63
2023-03-10T22:05:06.291Z,230.13
2023-03-10T22:06:06.271Z,229.91
2023-03-10T22:07:06.275Z,229.71
2023-03-10T22:08:06.234Z,229.85
2023-03-10T22:09:06.242Z,230.14
2023-03-10T22:10:06.216Z,231.00
2023-03-10T22:11:06.249Z,231.21
2023-03-10T22:12:06.190Z,230.58
2023-03-10T22:13:06.180Z,230.29
2023-03-10T22:14:06.160Z,229.72
2023-03-10T22:15:06.147Z,230.61
2023-03-10T22:16:06.214Z,230.30
2023-03-10T22:17:06.106Z,229.76
2023-03-10T22:18:06.084Z,231.06
2023-03-10T22:19:06.069Z,229.84
2023-03-10T22:20:06.047Z,230.31
2023-03-10T22:21:06.032Z,229.30
2023-03-10T22:22:06.021Z,229.18
2023-03-10T22:23:06.006Z,229.53
2023-03-10T22:24:06.002Z,229.77
2023-03-10T22:25:05.979Z,228.77
2023-03-10T22:26:05.972Z,229.33
2023-03-10T22:27:05.947Z,228.63
2023-03-10T22:28:05.927Z,228.83
2023-03-10T22:29:05.908Z,230.47
2023-03-10T22:30:05.895Z,229.71
2023-03-10T22:31:05.929Z,229.40
2023-03-10T22:32:05.860Z,229.07
2023-03-10T22:33:05.846Z,229.90
2023-03-10T22:34:05.834Z,228.52
2023-03-10T22:35:05.810Z,229.50
2023-03-10T22:36:05.844Z,228.10
2023-03-10T22:37:05.784Z,229.24
2023-03-10T22:38:05.783Z,228.26
2023-03-10T22:39:05.799Z,228.90
2023-03-10T22:40:05.753Z,229.39
2023-03-10T22:41:05.745Z,229.46
2023-03-10T22:42:05.730Z,229.52
2023-03-10T22:43:05.751Z,229.72
2023-03-10T22:44:05.716Z,229.43
2023-03-10T22:45:05.712Z,229.89
2023-03-10T22:46:05.683Z,230.26
2023-03-10T22:47:05.681Z,229.34
2023-03-10T22:48:05.662Z,229.71
2023-03-10T22:49:05.654Z,229.40
2023-03-10T22:50:05.634Z,229.23
2023-03-10T22:51:05.640Z,228.54
2023-03-10T22:52:05.615Z,229.23
2023-03-10T22:53:05.611Z,229.61
2023-03-10T22:54:05.594Z,228.40
2023-03-10T22:55:05.580Z,229.11
2023-03-10T22:56:05.571Z,228.66
2023-03-10T22:57:05.565Z,229.00
2023-03-10T22:58:05.532Z,229.03
2023-03-10T22:59:05.532Z,227.71
2023-03-10T23:00:05.527Z,229.05
2023-03-10T23:01:05.508Z,228.89
2023-03-10T23:02:05.538Z,227.91
2023-03-10T23:03:05.529Z,228.24
2023-03-10T23:04:05.490Z,228.17
2023-03-10T23:05:05.514Z,228.15
2023-03-10T23:06:05.483Z,227.19
2023-03-10T23:07:05.487Z,228.68
2023-03-10T23:08:05.481Z,228.46
2023-03-10T23:09:05.454Z,227.69
2023-03-10T23:10:05.448Z,227.36
2023-03-10T23:11:05.434Z,228.56
2023-03-10T23:12:05.420Z,226.99
2023-03-10T23:13:06.030Z,228.65
2023-03-10T23:14:05.419Z,226.93
2023-03-10T23:15:09.459Z,227.08
2023-03-10T23:16:06.445Z,227.15
2023-03-10T23:17:05.394Z,227.40
2023-03-10T23:18:05.379Z,227.77
2023-03-10T23:19:08.284Z,228.11
2023-03-10T23:20:05.374Z,229.63
2023-03-10T23:21:05.368Z,228.33
2023-03-10T23:22:05.341Z,228.06
2023-03-10T23:23:05.346Z,228.06
2023-03-10T23:24:05.314Z,228.01
2023-03-10T23:25:05.312Z,228.09
2023-03-10T23:26:05.291Z,228.15
2023-03-10T23:27:05.279Z,227.74
2023-03-10T23:28:05.271Z,227.81
2023-03-10T23:29:05.262Z,227.05
2023-03-10T23:30:05.262Z,227.30
2023-03-10T23:31:05.232Z,227.95
2023-03-10T23:32:05.213Z,227.82
2023-03-10T23:33:05.216Z,227.67
2023-03-10T23:34:05.193Z,227.26
2023-03-10T23:35:05.197Z,228.17
2023-03-10T23:36:05.202Z,226.74
2023-03-10T23:37:05.169Z,227.80
2023-03-10T23:38:05.149Z,226.38
2023-03-10T23:39:05.138Z,227.53
2023-03-10T23:40:05.140Z,227.10
2023-03-10T23:41:05.110Z,227.07
2023-03-10T23:42:05.103Z,227.66
2023-03-10T23:43:05.100Z,227.25
2023-03-10T23:44:05.079Z,227.30
2023-03-10T23:45:05.077Z,227.24
2023-03-10T23:46:05.138Z,227.13
2023-03-10T23:47:05.070Z,227.70
2023-03-10T23:48:05.042Z,226.93
2023-03-10T23:49:05.042Z,227.46
2023-03-10T23:50:05.010Z,225.99
2023-03-10T23:51:05.027Z,227.06
2023-03-10T23:52:04.982Z,227.00
2023-03-10T23:53:04.978Z,226.34
2023-03-10T23:54:04.953Z,225.73
2023-03-10T23:55:04.947Z,227.25
2023-03-10T23:56:04.945Z,226.97
2023-03-10T23:57:04.932Z,227.18
2023-03-10T23:58:04.913Z,225.54
2023-03-10T23:59:04.895Z,225.98
